Time;durP1;ratioP1;P1;durP2;ratioP2;P2;SDS_P1;SDS_P2;PMS_P1;PMS_P2;Temp;Humidity;BMP_temperature;BMP_pressure;BME280_temperature;BME280_humidity;BME280_pressure;Samples;Min_cycle;Max_cycle;Signal;HPM_P1;HPM_P2
2022/01/19 00:00:16;;;;;;;13.05;7.03;;;7.50;94.50;;;;;;5092655;28;20030;-70
2022/01/19 00:02:42;;;;;;;17.77;9.70;;;7.50;94.50;;;;;;5103539;28;20041;-70
2022/01/19 00:05:09;;;;;;;17.83;7.97;;;7.50;94.50;;;;;;5095456;28;20449;-70
2022/01/19 00:07:36;;;;;;;16.73;6.95;;;7.50;94.50;;;;;;5093163;28;20498;-70
2022/01/19 00:10:05;;;;;;;4.95;3.30;;;7.50;94.50;;;;;;5092579;28;20044;-70
2022/01/19 00:12:32;;;;;;;10.40;5.30;;;7.50;94.50;;;;;;5092655;28;20039;-70
2022/01/19 00:14:57;;;;;;;16.90;10.15;;;7.60;94.50;;;;;;5093034;28;20032;-70
2022/01/19 00:17:23;;;;;;;24.52;11.32;;;7.60;94.50;;;;;;5093218;28;20089;-71
2022/01/19 00:19:49;;;;;;;17.73;9.48;;;7.60;94.40;;;;;;5091917;28;20115;-71
2022/01/19 00:22:20;;;;;;;12.48;7.10;;;7.60;94.40;;;;;;5092839;28;20032;-70
2022/01/19 00:24:47;;;;;;;23.52;9.98;;;7.60;94.50;;;;;;5079648;28;20074;-70
2022/01/19 00:27:13;;;;;;;17.80;9.20;;;7.60;94.40;;;;;;5086167;28;20036;-71
2022/01/19 00:29:39;;;;;;;20.83;7.10;;;7.60;94.40;;;;;;5092937;28;20490;-70
2022/01/19 00:32:05;;;;;;;4.70;2.78;;;7.50;94.40;;;;;;5092604;28;20031;-71
2022/01/19 00:34:33;;;;;;;15.25;7.38;;;7.60;94.40;;;;;;5100668;28;20020;-70
2022/01/19 00:36:59;;;;;;;23.33;9.90;;;7.50;94.50;;;;;;5097429;28;20024;-71
2022/01/19 00:39:30;;;;;;;18.33;8.45;;;7.60;94.50;;;;;;5092580;28;20533;-70
2022/01/19 00:41:56;;;;;;;17.48;8.10;;;7.60;94.50;;;;;;5090857;28;20032;-71
2022/01/19 00:44:22;;;;;;;13.45;7.53;;;7.60;94.40;;;;;;5092532;28;20372;-71
2022/01/19 00:46:48;;;;;;;20.75;7.97;;;7.60;94.40;;;;;;5092733;28;20101;-70
2022/01/19 00:49:13;;;;;;;17.55;7.72;;;7.60;94.30;;;;;;5091502;28;20048;-71
2022/01/19 00:51:39;;;;;;;16.00;6.20;;;7.60;94.30;;;;;;5103083;28;20024;-71
2022/01/19 00:54:04;;;;;;;15.57;7.25;;;7.50;94.30;;;;;;5087325;28;20093;-71
2022/01/19 00:56:33;;;;;;;26.00;9.25;;;7.60;94.40;;;;;;5100989;28;20380;-70
2022/01/19 00:59:02;;;;;;;22.90;7.47;;;7.50;94.40;;;;;;5092225;28;20399;-70
2022/01/19 01:01:27;;;;;;;19.23;7.82;;;7.50;94.30;;;;;;5104056;28;20125;-70
2022/01/19 01:03:53;;;;;;;9.98;5.50;;;7.50;94.30;;;;;;5092312;28;20040;-70
2022/01/19 01:06:22;;;;;;;21.40;8.48;;;7.40;94.40;;;;;;5092054;28;20032;-70
2022/01/19 01:08:47;;;;;;;13.93;6.10;;;7.40;94.40;;;;;;5091858;28;20391;-70
2022/01/19 01:11:13;;;;;;;15.35;6.32;;;7.40;94.50;;;;;;5081934;28;20032;-70
2022/01/19 01:16:38;;;;;;;24.90;11.13;;;7.40;94.50;;;;;;5099513;28;20019;-71
2022/01/19 01:19:09;;;;;;;24.25;10.02;;;7.50;94.40;;;;;;5102396;28;20466;-70
2022/01/19 01:21:37;;;;;;;22.85;8.40;;;7.40;94.40;;;;;;5096123;28;20423;-70
2022/01/19 01:24:03;;;;;;;22.83;9.18;;;7.40;94.40;;;;;;5089461;28;20377;-71
2022/01/19 01:26:29;;;;;;;28.55;9.82;;;7.40;94.50;;;;;;5089284;28;20122;-71
2022/01/19 01:28:55;;;;;;;27.83;9.10;;;7.40;94.40;;;;;;5082659;28;20471;-70
2022/01/19 01:31:21;;;;;;;14.07;6.68;;;7.50;94.40;;;;;;5095472;28;20035;-71
2022/01/19 01:33:50;;;;;;;14.48;6.43;;;7.40;94.40;;;;;;5094661;28;20450;-71
2022/01/19 01:36:18;;;;;;;19.20;7.80;;;7.40;94.50;;;;;;5094258;28;20493;-71
2022/01/19 01:38:44;;;;;;;22.80;9.73;;;7.50;94.50;;;;;;5080086;28;20021;-70
2022/01/19 01:41:15;;;;;;;16.23;6.45;;;7.40;94.50;;;;;;5088499;28;20024;-70
2022/01/19 01:43:49;;;;;;;22.80;9.15;;;7.50;94.40;;;;;;5088486;28;20028;-70
2022/01/19 01:46:35;;;;;;;26.63;11.50;;;7.50;94.30;;;;;;5090782;28;20036;-70
2022/01/19 01:49:02;;;;;;;24.52;9.23;;;7.50;94.30;;;;;;5090516;28;20016;-70
2022/01/19 01:54:12;;;;;;;27.00;7.40;;;7.40;94.30;;;;;;5088813;28;20089;-70
2022/01/19 01:56:38;;;;;;;24.75;9.65;;;7.40;94.40;;;;;;5080178;28;20032;-70
2022/01/19 01:59:05;;;;;;;13.02;4.72;;;7.40;94.50;;;;;;5076177;28;20028;-70
2022/01/19 02:01:41;;;;;;;16.58;7.68;;;7.50;94.50;;;;;;5093532;28;20071;-70
2022/01/19 02:04:10;;;;;;;11.48;5.05;;;7.40;94.40;;;;;;5082094;28;20054;-70
2022/01/19 02:09:29;;;;;;;12.68;6.72;;;7.40;94.40;;;;;;5094232;28;20044;-70
2022/01/19 02:23:19;;;;;;;15.88;6.22;;;7.40;94.40;;;;;;5099969;28;20036;-70
2022/01/19 02:25:57;;;;;;;18.27;6.82;;;7.40;94.50;;;;;;5092838;28;20399;-70
2022/01/19 02:41:48;;;;;;;13.52;7.03;;;7.40;94.40;;;;;;5089914;28;20511;-70
2022/01/19 02:44:27;;;;;;;20.40;9.05;;;7.40;94.40;;;;;;5090038;28;20028;-70
2022/01/19 02:49:37;;;;;;;14.02;4.75;;;7.40;94.40;;;;;;5088676;28;20063;-71
2022/01/19 02:52:03;;;;;;;23.02;8.02;;;7.40;94.50;;;;;;5088516;28;20485;-71
2022/01/19 02:54:30;;;;;;;21.65;9.00;;;7.40;94.50;;;;;;5092238;28;20031;-71
2022/01/19 02:57:00;;;;;;;17.73;8.20;;;7.40;94.50;;;;;;5092990;28;20115;-71
2022/01/19 03:06:13;;;;;;;22.00;7.03;;;7.40;94.50;;;;;;5086516;28;20025;-71
2022/01/19 03:10:42;;;;;;;22.85;7.65;;;7.40;94.40;;;;;;5071725;28;20040;-71
2022/01/19 03:13:08;;;;;;;28.35;10.70;;;7.30;94.40;;;;;;5103106;28;20073;-71
2022/01/19 03:15:33;;;;;;;21.55;8.35;;;7.30;94.50;;;;;;5092179;28;20020;-70
2022/01/19 03:18:00;;;;;;;29.05;9.57;;;7.30;94.60;;;;;;5092734;28;20164;-70
2022/01/19 03:20:28;;;;;;;23.45;9.13;;;7.30;94.60;;;;;;5101701;28;20032;-71
2022/01/19 03:23:04;;;;;;;22.60;9.32;;;7.20;94.60;;;;;;5097573;28;20118;-71
2022/01/19 03:25:30;;;;;;;29.98;10.80;;;7.30;94.70;;;;;;5083731;28;20029;-70
2022/01/19 03:27:56;;;;;;;36.03;12.80;;;7.30;94.70;;;;;;5089133;28;20111;-70
2022/01/19 03:30:22;;;;;;;35.08;14.68;;;7.30;94.70;;;;;;5091871;28;20131;-71
2022/01/19 03:32:48;;;;;;;29.60;11.35;;;7.30;94.80;;;;;;5092214;28;20024;-71
2022/01/19 03:35:15;;;;;;;32.67;13.85;;;7.20;94.70;;;;;;5092072;28;20039;-70
2022/01/19 03:37:42;;;;;;;24.75;10.43;;;7.20;94.80;;;;;;5091635;28;20543;-70
2022/01/19 03:40:09;;;;;;;24.90;10.93;;;7.20;94.90;;;;;;5093830;28;20036;-70
2022/01/19 03:42:35;;;;;;;36.60;14.55;;;7.10;95.00;;;;;;5088158;28;20119;-70
2022/01/19 03:45:02;;;;;;;44.10;10.70;;;7.10;95.00;;;;;;5093015;28;20421;-70
2022/01/19 03:47:28;;;;;;;18.42;6.20;;;7.10;95.00;;;;;;5086886;28;20024;-70
2022/01/19 03:49:54;;;;;;;20.27;8.98;;;7.10;95.10;;;;;;5091441;28;20136;-70
2022/01/19 03:52:21;;;;;;;27.77;9.43;;;7.10;95.20;;;;;;5105686;28;20078;-70
2022/01/19 03:54:49;;;;;;;5.22;3.53;;;7.10;95.20;;;;;;5085391;28;20032;-71
2022/01/19 03:57:16;;;;;;;42.80;14.45;;;7.10;95.20;;;;;;5078739;28;20024;-70
2022/01/19 03:59:42;;;;;;;27.55;9.15;;;7.20;95.10;;;;;;5091810;28;20089;-71
2022/01/19 04:02:07;;;;;;;37.75;13.85;;;7.20;95.10;;;;;;5097061;28;20081;-70
2022/01/19 04:04:46;;;;;;;33.95;12.70;;;7.20;95.10;;;;;;5072569;28;20546;-70
2022/01/19 04:07:14;;;;;;;28.98;10.88;;;7.20;95.10;;;;;;5089222;28;20051;-70
2022/01/19 04:09:45;;;;;;;31.08;12.52;;;7.10;95.00;;;;;;5091728;28;20086;-70
2022/01/19 04:12:16;;;;;;;32.97;14.15;;;7.10;95.10;;;;;;5108034;28;20027;-70
2022/01/19 04:14:42;;;;;;;17.08;7.68;;;7.20;95.10;;;;;;5091770;28;20047;-70
2022/01/19 04:17:12;;;;;;;25.48;8.68;;;7.10;95.10;;;;;;5079758;28;20035;-70
2022/01/19 04:19:44;;;;;;;5.60;3.38;;;7.10;95.20;;;;;;5092092;28;20031;-70
2022/01/19 04:22:27;;;;;;;37.90;13.02;;;7.10;95.20;;;;;;5091749;28;20574;-70
2022/01/19 04:25:01;;;;;;;16.70;7.07;;;7.20;95.20;;;;;;5090679;28;20024;-70
2022/01/19 04:35:06;;;;;;;19.98;8.52;;;7.20;95.10;;;;;;5091592;28;20039;-70
2022/01/19 05:05:46;;;;;;;35.78;10.32;;;7.10;95.20;;;;;;5082915;28;20031;-70
2022/01/19 05:15:44;;;;;;;11.80;6.30;;;7.10;95.30;;;;;;5090389;28;20020;-70
2022/01/19 05:18:16;;;;;;;36.42;12.20;;;7.10;95.30;;;;;;5090796;28;20046;-70
2022/01/19 05:20:43;;;;;;;24.35;9.32;;;7.10;95.30;;;;;;5091039;28;20032;-70
2022/01/19 05:23:17;;;;;;;22.38;9.13;;;7.10;95.30;;;;;;5090216;28;20056;-71
2022/01/19 05:25:44;;;;;;;9.13;4.68;;;7.20;95.20;;;;;;5102564;28;20039;-71
2022/01/19 05:28:19;;;;;;;25.10;10.00;;;7.20;95.20;;;;;;5090146;28;20481;-71
2022/01/19 05:30:46;;;;;;;13.23;5.95;;;7.20;95.20;;;;;;5090729;28;20391;-70
2022/01/19 05:33:12;;;;;;;32.33;12.82;;;7.20;95.10;;;;;;5098380;28;20031;-70
2022/01/19 05:35:38;;;;;;;32.42;11.48;;;7.30;95.20;;;;;;5096081;28;20063;-70
2022/01/19 05:38:13;;;;;;;41.25;13.88;;;7.30;95.10;;;;;;5089865;28;20062;-70
2022/01/19 05:40:49;;;;;;;20.33;9.23;;;7.20;95.00;;;;;;5106421;28;20549;-71
2022/01/19 05:43:14;;;;;;;26.33;9.80;;;7.20;95.10;;;;;;5092958;28;20039;-73
2022/01/19 05:45:40;;;;;;;35.28;13.10;;;7.20;95.10;;;;;;5096792;28;20028;-73
2022/01/19 05:48:12;;;;;;;27.30;9.63;;;7.20;95.10;;;;;;5081513;28;20483;-72
2022/01/19 05:50:42;;;;;;;15.73;5.25;;;7.20;95.10;;;;;;5109050;28;20050;-71
2022/01/19 05:53:10;;;;;;;26.00;7.55;;;7.20;95.10;;;;;;5096273;28;20034;-72
2022/01/19 05:55:36;;;;;;;23.20;8.13;;;7.20;95.20;;;;;;5104282;28;20115;-72
2022/01/19 05:58:02;;;;;;;24.63;9.65;;;7.20;95.20;;;;;;5108526;28;20115;-72
2022/01/19 06:00:31;;;;;;;24.20;8.80;;;7.20;95.10;;;;;;5106679;28;20072;-72
2022/01/19 06:02:57;;;;;;;18.13;5.57;;;7.30;95.10;;;;;;5106501;27;20035;-72
2022/01/19 06:05:35;;;;;;;23.00;9.02;;;7.30;95.10;;;;;;5111252;28;20542;-74
2022/01/19 06:10:58;;;;;;;23.05;9.38;;;7.20;95.00;;;;;;5110734;28;20043;-72
2022/01/19 06:13:27;;;;;;;7.10;4.45;;;7.30;95.00;;;;;;5112314;28;20455;-71
2022/01/19 06:15:53;;;;;;;20.00;7.65;;;7.30;95.00;;;;;;5109830;28;20372;-72
2022/01/19 06:18:20;;;;;;;19.55;6.93;;;7.30;95.30;;;;;;5105048;28;20029;-74
2022/01/19 06:20:47;;;;;;;17.38;7.43;;;7.30;95.00;;;;;;5106128;28;20474;-72
2022/01/19 06:23:16;;;;;;;16.33;8.68;;;7.30;95.00;;;;;;5109648;28;20477;-73
2022/01/19 06:25:51;;;;;;;31.48;10.20;;;7.30;95.00;;;;;;5109705;28;20028;-70
2022/01/19 06:28:17;;;;;;;8.15;3.17;;;7.30;95.00;;;;;;5126408;27;20023;-68
2022/01/19 06:30:42;;;;;;;3.42;3.13;;;7.40;95.00;;;;;;5111759;28;20498;-69
2022/01/19 06:33:08;;;;;;;20.38;8.02;;;7.40;94.90;;;;;;5110784;28;20023;-69
2022/01/19 06:35:36;;;;;;;15.23;5.22;;;7.40;94.90;;;;;;5106098;28;20379;-69
2022/01/19 06:38:21;;;;;;;13.93;5.60;;;7.40;94.80;;;;;;5101476;28;20058;-69
2022/01/19 06:40:57;;;;;;;4.88;3.40;;;7.40;94.80;;;;;;5107253;28;20035;-69
2022/01/19 06:43:23;;;;;;;14.25;5.95;;;7.40;94.80;;;;;;5108857;28;20420;-69
2022/01/19 06:45:49;;;;;;;14.88;5.82;;;7.50;94.80;;;;;;5100665;28;20035;-68
2022/01/19 06:48:15;;;;;;;24.67;10.35;;;7.40;94.70;;;;;;5103211;28;20056;-69
2022/01/19 06:50:43;;;;;;;22.08;9.25;;;7.50;94.70;;;;;;5106469;28;20052;-68
2022/01/19 06:53:09;;;;;;;11.07;5.82;;;7.40;94.70;;;;;;5103271;28;20036;-68
2022/01/19 06:55:37;;;;;;;15.73;4.95;;;7.50;94.70;;;;;;5092945;28;20024;-68
2022/01/19 06:58:04;;;;;;;18.17;8.10;;;7.50;94.70;;;;;;5093351;28;20024;-68
2022/01/19 07:00:41;;;;;;;15.98;6.50;;;7.40;94.70;;;;;;5093362;28;20032;-68
2022/01/19 07:03:32;;;;;;;11.77;4.82;;;7.40;94.70;;;;;;5072864;28;20043;-68
2022/01/19 07:06:11;;;;;;;8.25;4.53;;;7.40;94.60;;;;;;5093045;28;20028;-68
2022/01/19 07:08:42;;;;;;;18.10;7.47;;;7.40;94.70;;;;;;5091557;28;20487;-68
2022/01/19 07:11:08;;;;;;;14.20;3.28;;;7.40;94.70;;;;;;5092820;28;20034;-68
2022/01/19 07:13:33;;;;;;;18.10;6.25;;;7.40;94.70;;;;;;5088859;28;20021;-68
2022/01/19 07:15:59;;;;;;;10.40;5.20;;;7.40;94.60;;;;;;5082637;28;20077;-68
2022/01/19 07:18:25;;;;;;;4.32;3.13;;;7.40;94.60;;;;;;5079911;28;20028;-68
2022/01/19 07:20:55;;;;;;;6.93;4.28;;;7.40;94.60;;;;;;5092102;28;20027;-69
2022/01/19 07:23:27;;;;;;;14.20;7.40;;;7.40;94.70;;;;;;5092277;28;20032;-68
2022/01/19 07:25:53;;;;;;;11.63;4.65;;;7.50;94.60;;;;;;5079604;28;20031;-68
2022/01/19 07:28:19;;;;;;;14.60;5.50;;;7.40;94.60;;;;;;5091050;28;20548;-70
2022/01/19 07:30:47;;;;;;;13.30;6.35;;;7.40;94.60;;;;;;5079100;28;20042;-68
2022/01/19 07:33:13;;;;;;;28.75;11.23;;;7.50;94.60;;;;;;5106589;28;20032;-68
2022/01/19 07:35:39;;;;;;;14.95;5.25;;;7.50;94.60;;;;;;5091325;28;20359;-69
2022/01/19 07:38:05;;;;;;;19.23;9.23;;;7.50;94.60;;;;;;5085127;28;20028;-68
2022/01/19 07:40:31;;;;;;;11.30;5.07;;;7.50;94.60;;;;;;5085954;28;20055;-68
2022/01/19 07:42:56;;;;;;;25.10;10.50;;;7.50;94.60;;;;;;5086943;28;20032;-68
2022/01/19 07:45:40;;;;;;;;;;;7.50;94.60;;;;;;5093222;28;20434;-68
2022/01/19 07:48:16;;;;;;;17.75;8.00;;;7.50;94.60;;;;;;5094429;28;19908;-68
2022/01/19 07:50:58;;;;;;;19.33;9.27;;;7.50;94.50;;;;;;5078174;28;20093;-68
2022/01/19 07:53:37;;;;;;;11.80;5.78;;;7.40;94.50;;;;;;5089965;28;20082;-68
2022/01/19 07:56:26;;;;;;;7.10;4.60;;;7.40;94.50;;;;;;5084826;28;20028;-68
2022/01/19 07:59:09;;;;;;;23.02;10.82;;;7.40;94.60;;;;;;5091938;28;20078;-68
2022/01/19 08:02:04;;;;;;;16.75;7.90;;;7.40;94.60;;;;;;5082753;28;20035;-68
2022/01/19 08:05:02;;;;;;;12.68;6.55;;;7.40;94.70;;;;;;5045560;28;20046;-68
2022/01/19 08:07:32;;;;;;;12.10;6.18;;;7.40;94.70;;;;;;5091453;28;20026;-68
2022/01/19 08:10:00;;;;;;;19.02;6.38;;;7.30;94.70;;;;;;5090973;28;20039;-68
2022/01/19 08:12:26;;;;;;;14.80;6.50;;;7.40;94.80;;;;;;5100938;28;20015;-68
2022/01/19 08:14:51;;;;;;;5.50;4.13;;;7.40;94.80;;;;;;5098613;28;20058;-69
2022/01/19 08:17:28;;;;;;;18.95;8.85;;;7.30;94.70;;;;;;5091039;28;20032;-68
2022/01/19 08:19:55;;;;;;;22.85;10.05;;;7.40;94.80;;;;;;5091143;28;20390;-69
2022/01/19 08:22:22;;;;;;;21.50;10.73;;;7.40;94.70;;;;;;5091830;28;20430;-68
2022/01/19 08:25:14;;;;;;;19.75;7.63;;;7.40;94.70;;;;;;5076575;28;20100;-68
2022/01/19 08:27:40;;;;;;;22.42;10.93;;;7.40;94.70;;;;;;5091294;28;20077;-68
2022/01/19 08:30:09;;;;;;;19.52;8.10;;;7.30;94.70;;;;;;5091446;28;20062;-68
2022/01/19 08:32:35;;;;;;;17.27;7.88;;;7.40;95.00;;;;;;5090472;28;20030;-68
2022/01/19 08:35:21;;;;;;;34.55;13.43;;;7.30;94.70;;;;;;5092386;28;20114;-68
2022/01/19 08:38:06;;;;;;;18.08;7.32;;;7.40;94.70;;;;;;5080402;28;20081;-68
2022/01/19 08:40:40;;;;;;;18.85;9.05;;;7.30;94.70;;;;;;5091009;28;20032;-68
2022/01/19 08:43:15;;;;;;;18.00;8.30;;;7.30;94.70;;;;;;5087888;28;20035;-68
2022/01/19 08:45:42;;;;;;;27.60;11.80;;;7.30;94.80;;;;;;5089309;28;20379;-68
2022/01/19 08:48:09;;;;;;;16.42;7.15;;;7.30;94.80;;;;;;5099877;28;20445;-68
2022/01/19 08:50:47;;;;;;;17.52;7.40;;;7.30;94.80;;;;;;5091026;28;20052;-68
2022/01/19 08:53:40;;;;;;;15.63;5.38;;;7.30;94.80;;;;;;5088991;28;20028;-68
2022/01/19 08:56:20;;;;;;;25.23;11.20;;;7.30;94.80;;;;;;5091680;28;20028;-68
2022/01/19 08:58:46;;;;;;;24.05;10.05;;;7.30;94.80;;;;;;5092161;28;20390;-68
2022/01/19 09:01:11;;;;;;;12.80;7.25;;;7.30;94.90;;;;;;5091526;28;20028;-68
2022/01/19 09:03:37;;;;;;;30.38;7.07;;;7.40;94.90;;;;;;5081209;28;20036;-68
2022/01/19 09:06:03;;;;;;;18.38;9.25;;;7.40;94.80;;;;;;5080577;28;20039;-68
2022/01/19 09:08:30;;;;;;;12.52;6.78;;;7.50;94.80;;;;;;5091553;28;20122;-68
2022/01/19 09:10:58;;;;;;;32.10;10.30;;;7.50;94.80;;;;;;5092442;28;20505;-68
2022/01/19 09:13:25;;;;;;;16.60;6.35;;;7.50;94.70;;;;;;5091360;28;20035;-68
2022/01/19 09:15:50;;;;;;;24.27;10.55;;;7.50;94.60;;;;;;5092395;28;20042;-69
2022/01/19 09:18:16;;;;;;;22.48;9.93;;;7.50;94.60;;;;;;5079258;28;20028;-68
2022/01/19 09:20:46;;;;;;;19.38;9.15;;;7.50;94.60;;;;;;5091590;28;20479;-68
2022/01/19 09:23:13;;;;;;;25.58;12.02;;;7.50;94.60;;;;;;5092237;28;20078;-68
2022/01/19 09:25:40;;;;;;;16.73;8.15;;;7.50;94.70;;;;;;5082837;28;20033;-68
2022/01/19 09:28:07;;;;;;;23.25;9.30;;;7.50;94.70;;;;;;5086277;28;20048;-68
2022/01/19 09:30:34;;;;;;;28.70;12.63;;;7.50;94.80;;;;;;5084082;28;20040;-68
2022/01/19 09:33:09;;;;;;;29.27;10.18;;;7.50;94.80;;;;;;5094836;28;20043;-68
2022/01/19 09:36:30;;;;;;;23.65;9.90;;;7.50;94.80;;;;;;5083784;28;20035;-68
2022/01/19 09:38:26;;;;;;;23.90;10.27;;;7.50;94.80;;;;;;5085050;28;20487;-68
2022/01/19 09:40:52;;;;;;;34.20;13.27;;;7.50;94.80;;;;;;5096090;28;20111;-68
2022/01/19 09:43:22;;;;;;;30.17;11.27;;;7.50;94.90;;;;;;5091323;28;20028;-69
2022/01/19 09:45:56;;;;;;;23.35;10.57;;;7.50;95.20;;;;;;5101643;28;20081;-68
2022/01/19 09:48:23;;;;;;;40.38;13.05;;;7.50;94.90;;;;;;5108819;28;20024;-68
2022/01/19 09:50:49;;;;;;;35.75;14.65;;;7.50;94.90;;;;;;5114289;28;20047;-68
2022/01/19 09:53:15;;;;;;;38.47;15.30;;;7.50;94.90;;;;;;5111699;28;20378;-68
2022/01/19 09:55:41;;;;;;;39.90;14.90;;;7.50;94.90;;;;;;5112925;28;20027;-68
2022/01/19 09:58:08;;;;;;;17.35;7.40;;;7.50;94.90;;;;;;5112221;28;20038;-68
2022/01/19 10:00:34;;;;;;;35.47;14.30;;;7.50;95.00;;;;;;5115375;27;20063;-68
2022/01/19 10:03:24;;;;;;;18.25;8.95;;;7.50;95.00;;;;;;5098311;28;20032;-68
2022/01/19 10:06:11;;;;;;;23.88;10.23;;;7.50;95.00;;;;;;5090133;28;20041;-68
2022/01/19 10:08:43;;;;;;;48.17;18.75;;;7.50;95.00;;;;;;5103466;28;20107;-68
2022/01/19 10:11:16;;;;;;;31.70;13.68;;;7.50;95.00;;;;;;5103907;28;20031;-68
2022/01/19 10:17:02;;;;;;;32.92;13.80;;;7.50;95.10;;;;;;5108296;28;20139;-68
2022/01/19 10:19:45;;;;;;;27.40;12.90;;;7.50;95.10;;;;;;5095458;28;20035;-68
2022/01/19 10:22:20;;;;;;;29.40;13.43;;;7.50;95.10;;;;;;5093456;28;20023;-68
2022/01/19 10:25:02;;;;;;;40.83;15.63;;;7.50;95.10;;;;;;5114957;28;20277;-68
2022/01/19 10:27:45;;;;;;;33.97;14.48;;;7.50;95.20;;;;;;5106026;28;20119;-67
2022/01/19 10:30:23;;;;;;;28.58;12.30;;;7.50;95.20;;;;;;5094824;28;20440;-67
2022/01/19 10:33:00;;;;;;;36.20;14.90;;;7.50;95.20;;;;;;5110763;28;20036;-67
2022/01/19 10:35:36;;;;;;;37.40;14.20;;;7.50;95.20;;;;;;5098997;28;20019;-67
2022/01/19 10:38:14;;;;;;;25.75;11.43;;;7.50;95.20;;;;;;5103282;28;20765;-68
2022/01/19 10:40:43;;;;;;;35.10;15.43;;;7.50;95.30;;;;;;5106333;28;20043;-67
2022/01/19 10:43:34;;;;;;;47.33;20.67;;;7.50;95.30;;;;;;5100816;28;20111;-67
2022/01/19 10:46:20;;;;;;;42.72;16.73;;;7.50;95.30;;;;;;5111216;28;20035;-67
2022/01/19 10:48:46;;;;;;;41.88;18.08;;;7.50;95.30;;;;;;5103229;28;20034;-68
2022/01/19 10:51:15;;;;;;;42.30;17.15;;;7.50;95.30;;;;;;5114019;28;20048;-68
2022/01/19 10:53:47;;;;;;;23.30;10.65;;;7.40;95.30;;;;;;5110491;28;20088;-68
2022/01/19 10:56:28;;;;;;;30.97;15.50;;;7.40;95.40;;;;;;5108881;28;20020;-67
2022/01/19 10:59:08;;;;;;;39.17;14.18;;;7.50;95.40;;;;;;5108435;28;20032;-68
2022/01/19 11:01:56;;;;;;;36.42;17.67;;;7.50;95.40;;;;;;5113867;28;20042;-67
2022/01/19 11:04:25;;;;;;;36.13;14.45;;;7.50;95.40;;;;;;5111769;28;20038;-68
2022/01/19 11:06:57;;;;;;;27.30;11.43;;;7.50;95.40;;;;;;5102009;28;20398;-68
2022/01/19 11:09:26;;;;;;;37.47;16.05;;;7.50;95.40;;;;;;5107672;28;20085;-68
2022/01/19 11:11:54;;;;;;;34.40;13.75;;;7.50;95.40;;;;;;5094371;28;20385;-67
2022/01/19 11:14:20;;;;;;;45.22;15.30;;;7.60;95.40;;;;;;5093989;28;20028;-67
2022/01/19 11:16:48;;;;;;;25.40;11.13;;;7.60;95.40;;;;;;5106941;28;20081;-68
2022/01/19 11:19:15;;;;;;;36.90;14.30;;;7.60;95.40;;;;;;5093659;28;20066;-69
2022/01/19 11:22:03;;;;;;;35.05;15.48;;;7.60;95.40;;;;;;5092731;28;20521;-68
2022/01/19 11:24:43;;;;;;;37.45;16.17;;;7.60;95.40;;;;;;5094110;28;20067;-68
2022/01/19 11:27:09;;;;;;;33.60;14.75;;;7.50;95.30;;;;;;5092326;28;20020;-69
2022/01/19 11:29:38;;;;;;;48.92;16.73;;;7.60;95.40;;;;;;5093467;28;20028;-68
2022/01/19 11:32:18;;;;;;;28.83;14.70;;;7.60;95.40;;;;;;5093700;28;20044;-67
2022/01/19 11:34:49;;;;;;;41.25;18.92;;;7.60;95.40;;;;;;5097425;28;20042;-67
2022/01/19 11:37:31;;;;;;;49.92;19.73;;;7.60;95.50;;;;;;5104136;28;20081;-67
2022/01/19 11:40:06;;;;;;;36.08;16.10;;;7.60;95.50;;;;;;5100279;28;20118;-68
2022/01/19 11:42:32;;;;;;;31.90;13.57;;;7.60;95.50;;;;;;5108626;28;20023;-68
2022/01/19 11:44:58;;;;;;;50.28;18.77;;;7.60;95.50;;;;;;5108184;28;20024;-68
2022/01/19 11:47:29;;;;;;;48.90;18.88;;;7.60;95.60;;;;;;5106795;28;20035;-69
2022/01/19 11:50:10;;;;;;;47.72;20.58;;;7.60;95.60;;;;;;5112487;28;20051;-69
2022/01/19 11:52:40;;;;;;;58.92;20.13;;;7.60;95.70;;;;;;5097048;28;20111;-69
2022/01/19 11:55:19;;;;;;;34.88;15.02;;;7.60;95.70;;;;;;5081616;28;20035;-70
2022/01/19 11:57:47;;;;;;;37.63;17.17;;;7.60;95.80;;;;;;5097920;28;20032;-69
2022/01/19 12:00:21;;;;;;;49.95;21.63;;;7.60;95.80;;;;;;5101719;28;20174;-68
2022/01/19 12:02:58;;;;;;;55.55;24.27;;;7.60;95.90;;;;;;5073201;28;20033;-68
2022/01/19 12:05:29;;;;;;;34.75;14.55;;;7.60;95.90;;;;;;5102388;28;20085;-68
2022/01/19 12:07:57;;;;;;;52.70;20.33;;;7.60;95.90;;;;;;5093531;28;20042;-68
2022/01/19 12:10:30;;;;;;;42.15;20.15;;;7.60;95.90;;;;;;5092133;28;20040;-68
2022/01/19 12:13:40;;;;;;;36.38;17.17;;;7.60;95.90;;;;;;5095452;28;20070;-68
2022/01/19 12:16:16;;;;;;;44.15;18.17;;;7.60;95.90;;;;;;5107127;28;20028;-69
2022/01/19 12:18:54;;;;;;;48.47;19.50;;;7.60;95.90;;;;;;5101318;28;20028;-68
2022/01/19 12:21:31;;;;;;;43.53;17.90;;;7.60;96.00;;;;;;5112440;28;20035;-68
2022/01/19 12:24:32;;;;;;;38.83;16.75;;;7.70;96.00;;;;;;5079144;28;20039;-68
2022/01/19 12:27:05;;;;;;;39.15;18.08;;;7.60;96.00;;;;;;5090407;28;20040;-68
2022/01/19 12:29:39;;;;;;;34.13;18.50;;;7.60;96.00;;;;;;5101293;28;20450;-69
2022/01/19 12:32:09;;;;;;;43.33;18.95;;;7.70;96.10;;;;;;5112142;28;20416;-68
2022/01/19 12:34:48;;;;;;;29.33;13.00;;;7.70;96.00;;;;;;5112559;28;20019;-68
2022/01/19 12:37:32;;;;;;;45.60;20.05;;;7.70;96.10;;;;;;5096503;28;20039;-68
2022/01/19 12:40:24;;;;;;;34.05;10.95;;;7.70;96.10;;;;;;5081791;28;20033;-68
2022/01/19 12:42:59;;;;;;;46.42;18.55;;;7.70;96.00;;;;;;5082008;28;20032;-68
2022/01/19 12:45:32;;;;;;;29.02;13.57;;;7.70;96.10;;;;;;5094865;28;20119;-68
2022/01/19 12:48:04;;;;;;;28.42;14.65;;;7.70;96.00;;;;;;5084291;28;20028;-70
2022/01/19 12:50:30;;;;;;;40.63;15.50;;;7.70;96.00;;;;;;5091771;28;20052;-68
2022/01/19 12:53:20;;;;;;;31.70;14.63;;;7.80;96.00;;;;;;5092267;28;20028;-67
2022/01/19 12:55:52;;;;;;;39.75;16.50;;;7.80;96.10;;;;;;5108006;28;20044;-68
2022/01/19 12:58:27;;;;;;;52.50;17.02;;;7.80;96.00;;;;;;5105224;28;20036;-68
2022/01/19 13:00:58;;;;;;;42.33;18.00;;;7.80;96.00;;;;;;5105844;28;20383;-68
2022/01/19 13:03:30;;;;;;;34.40;14.18;;;7.80;96.00;;;;;;5109666;28;20026;-68
2022/01/19 13:06:02;;;;;;;43.47;19.58;;;7.80;96.10;;;;;;5111322;28;20038;-68
2022/01/19 13:08:32;;;;;;;46.83;19.02;;;7.80;96.10;;;;;;5113912;28;20073;-68
2022/01/19 13:11:06;;;;;;;46.45;18.38;;;7.80;96.10;;;;;;5113763;27;20125;-68
2022/01/19 13:13:46;;;;;;;40.88;17.52;;;7.80;96.10;;;;;;5111351;28;20031;-68
2022/01/19 13:16:12;;;;;;;39.00;16.83;;;7.80;96.10;;;;;;5110704;28;20027;-68
2022/01/19 13:18:43;;;;;;;34.65;14.38;;;7.80;96.10;;;;;;5110487;28;20038;-68
2022/01/19 13:21:29;;;;;;;39.38;14.07;;;7.80;96.10;;;;;;5111029;28;20797;-68
2022/01/19 13:24:06;;;;;;;37.25;16.27;;;7.80;96.10;;;;;;5109934;28;20030;-68
2022/01/19 13:26:54;;;;;;;46.78;16.90;;;7.80;96.10;;;;;;5112579;28;20076;-68
2022/01/19 13:29:31;;;;;;;44.10;18.10;;;7.80;96.10;;;;;;5112677;28;20019;-69
2022/01/19 13:31:56;;;;;;;30.60;12.90;;;7.80;96.10;;;;;;5116048;28;20042;-69
2022/01/19 13:34:22;;;;;;;41.17;16.48;;;7.90;96.00;;;;;;5113277;28;20027;-69
2022/01/19 13:36:59;;;;;;;42.03;18.52;;;7.90;96.10;;;;;;5108202;28;20114;-69
2022/01/19 13:39:25;;;;;;;28.77;14.00;;;7.90;96.10;;;;;;5111500;28;20359;-69
2022/01/19 13:41:53;;;;;;;44.45;17.23;;;7.80;96.00;;;;;;5108097;28;20543;-69
2022/01/19 13:44:25;;;;;;;42.50;15.93;;;7.90;96.10;;;;;;5111412;28;20074;-69
2022/01/19 13:47:10;;;;;;;34.38;13.45;;;7.90;96.00;;;;;;5107523;28;20038;-69
2022/01/19 13:49:53;;;;;;;29.67;13.15;;;7.90;96.00;;;;;;5110706;28;20120;-71
2022/01/19 13:52:25;;;;;;;36.53;15.75;;;7.90;96.00;;;;;;5107845;28;20071;-69
2022/01/19 13:54:52;;;;;;;30.60;13.77;;;7.90;96.00;;;;;;5103776;28;20047;-69
2022/01/19 13:57:30;;;;;;;26.55;12.23;;;8.00;96.00;;;;;;5111345;28;20489;-69
2022/01/19 14:00:17;;;;;;;25.92;11.35;;;8.00;96.00;;;;;;5109816;28;20024;-69
2022/01/19 14:02:56;;;;;;;29.88;10.02;;;8.00;96.00;;;;;;5108196;28;20038;-69
2022/01/19 14:05:38;;;;;;;36.75;15.55;;;8.00;96.00;;;;;;5110800;28;20031;-69
2022/01/19 14:08:04;;;;;;;44.33;17.13;;;8.00;96.00;;;;;;5108869;28;21393;-69
2022/01/19 14:10:44;;;;;;;37.05;13.40;;;8.00;96.00;;;;;;5108658;28;20031;-69
2022/01/19 14:13:36;;;;;;;35.92;14.88;;;8.00;96.10;;;;;;5112367;28;20096;-69
2022/01/19 14:16:21;;;;;;;31.80;14.98;;;7.90;96.10;;;;;;5109235;28;20823;-69
2022/01/19 14:19:06;;;;;;;28.13;10.73;;;8.00;96.20;;;;;;5106244;28;20027;-69
2022/01/19 14:21:33;;;;;;;31.08;12.07;;;8.00;96.20;;;;;;5107907;28;20028;-69
2022/01/19 14:24:00;;;;;;;19.15;9.05;;;7.90;96.20;;;;;;5111993;28;20086;-69
2022/01/19 14:26:26;;;;;;;33.47;13.25;;;8.00;96.30;;;;;;5110873;28;20606;-69
2022/01/19 14:29:21;;;;;;;24.77;12.20;;;7.90;96.30;;;;;;5112934;28;20020;-69
2022/01/19 14:31:58;;;;;;;30.88;13.02;;;8.00;96.30;;;;;;5095801;28;20399;-69
2022/01/19 14:34:41;;;;;;;32.45;14.05;;;7.90;96.30;;;;;;5107364;28;20036;-69
2022/01/19 14:37:08;;;;;;;35.33;11.90;;;7.90;96.50;;;;;;5113428;28;20031;-69
2022/01/19 14:39:46;;;;;;;25.92;10.30;;;7.80;96.50;;;;;;5109589;28;20015;-69